Time,TemperatureF,DewpointF,PressureIn,WindDirection,WindDirectionDegrees,WindSpeedMPH,WindSpeedGustMPH,Humidity,HourlyPrecipIn,Conditions,Clouds,dailyrainin,SoftwareType,DateUTC
2013-03-11 00:00:00,55.2,54.0,29.56,WSW,242,2.0,14.0,96,0.13,RA,FEW,0.00,WeatherDisplay:10.37,2013-03-10 23:00:00,
2013-03-11 01:00:00,53.0,51.9,29.57,SSW,195,0.0,7.0,96,0.00,CLR,FEW,0.00,WeatherDisplay:10.37,2013-03-11 00:00:00,
2013-03-11 02:00:00,53.4,52.3,29.57,SSW,206,0.0,6.0,96,0.00,CLR,FEW,0.00,WeatherDisplay:10.37,2013-03-11 01:00:00,
2013-03-11 03:00:00,54.3,52.1,29.56,SSW,205,2.0,13.0,92,0.00,CLR,FEW,0.00,WeatherDisplay:10.37,2013-03-11 02:00:00,
2013-03-11 04:00:00,54.6,51.7,29.56,SSW,205,1.0,8.0,90,0.00,CLR,FEW,0.00,WeatherDisplay:10.37,2013-03-11 03:00:00,
2013-03-11 05:00:00,53.7,50.8,29.56,South,191,1.0,10.0,90,0.00,CLR,FEW,0.00,WeatherDisplay:10.37,2013-03-11 04:00:00,
2013-03-11 06:00:00,53.7,50.2,29.56,South,186,1.0,6.0,88,0.00,CLR,FEW,0.00,WeatherDisplay:10.37,2013-03-11 05:00:00,
2013-03-11 07:00:00,53.5,49.4,29.57,South,172,1.0,6.0,86,0.00,CLR,FEW,0.00,WeatherDisplay:10.37,2013-03-11 06:00:00,
2013-03-11 08:00:00,55.1,50.7,29.58,South,188,1.0,4.0,85,0.00,CLR,FEW,0.00,WeatherDisplay:10.37,2013-03-11 07:00:00,
2013-03-11 09:00:00,59.1,51.9,29.58,SSW,206,2.0,12.0,77,0.00,CLR,FEW,0.00,WeatherDisplay:10.37,2013-03-11 08:00:00,
2013-03-11 10:00:00,61.5,50.8,29.57,SW,222,3.0,10.0,68,0.00,CLR,FEW,0.00,WeatherDisplay:10.37,2013-03-11 09:00:00,
2013-03-11 11:00:00,62.0,51.3,29.58,SW,231,5.0,14.0,68,0.00,CLR,FEW,0.00,WeatherDisplay:10.37,2013-03-11 10:00:00,
2013-03-11 12:00:00,60.8,50.2,29.57,SSW,208,2.0,10.0,68,0.00,CLR,FEW,0.00,WeatherDisplay:10.37,2013-03-11 11:00:00,
2013-03-11 13:00:00,63.0,48.9,29.55,SW,217,6.0,14.0,60,0.00,CLR,FEW,0.00,WeatherDisplay:10.37,2013-03-11 12:00:00,
2013-03-11 14:00:00,62.0,48.4,29.54,SW,228,3.0,14.0,61,0.00,CLR,FEW,0.00,WeatherDisplay:10.37,2013-03-11 13:00:00,
2013-03-11 15:00:00,61.7,49.8,29.53,WSW,244,3.0,12.0,65,0.00,CLR,FEW,0.00,WeatherDisplay:10.37,2013-03-11 14:00:00,
2013-03-11 16:00:00,61.6,51.4,29.53,SW,222,3.0,16.0,69,0.00,CLR,FEW,0.00,WeatherDisplay:10.37,2013-03-11 15:00:00,
2013-03-11 17:00:00,59.4,49.3,29.53,SW,216,2.0,12.0,69,0.00,CLR,FEW,0.00,WeatherDisplay:10.37,2013-03-11 16:00:00,
2013-03-11 18:00:00,57.1,50.0,29.53,SW,217,2.0,9.0,77,0.00,CLR,FEW,0.00,WeatherDisplay:10.37,2013-03-11 17:00:00,
2013-03-11 19:00:00,56.5,51.1,29.54,South,187,2.0,8.0,82,0.00,CLR,FEW,0.00,WeatherDisplay:10.37,2013-03-11 18:00:00,
2013-03-11 20:00:00,56.2,51.1,29.54,South,187,2.0,7.0,83,0.00,CLR,FEW,0.00,WeatherDisplay:10.37,2013-03-11 19:00:00,
2013-03-11 21:00:00,55.2,51.1,29.55,SSW,202,1.0,9.0,86,0.00,CLR,FEW,0.00,WeatherDisplay:10.37,2013-03-11 20:00:00,
2013-03-11 22:00:00,54.9,49.5,29.56,South,187,2.0,9.0,82,0.00,CLR,FEW,0.00,WeatherDisplay:10.37,2013-03-11 21:00:00,
2013-03-11 23:00:00,54.7,49.3,29.55,SSW,194,1.0,5.0,82,0.00,CLR,FEW,0.00,WeatherDisplay:10.37,2013-03-11 22:00:00,